createdAt,value
2024-02-29T00:00:52.102Z,27.10
2024-02-29T00:03:18.578Z,27.50
2024-02-29T00:05:45.884Z,26.57
2024-02-29T00:08:12.622Z,34.67
2024-02-29T00:10:39.210Z,33.77
2024-02-29T00:13:07.272Z,26.17
2024-02-29T00:15:34.138Z,29.80
2024-02-29T00:18:00.973Z,21.47
2024-02-29T00:20:27.498Z,22.90
2024-02-29T00:22:54.015Z,22.90
2024-02-29T00:25:20.477Z,21.50
2024-02-29T00:27:47.146Z,22.20
2024-02-29T00:30:14.544Z,21.07
2024-02-29T00:32:41.240Z,22.13
2024-02-29T00:35:10.258Z,21.73
2024-02-29T00:37:37.049Z,22.70
2024-02-29T00:40:04.027Z,21.70
2024-02-29T00:42:30.831Z,21.27
2024-02-29T00:44:57.436Z,21.53
2024-02-29T00:47:23.923Z,22.73
2024-02-29T00:49:50.430Z,21.53
2024-02-29T00:52:16.920Z,20.27
2024-02-29T00:54:43.520Z,20.43
2024-02-29T00:57:09.993Z,20.83
2024-02-29T00:59:37.112Z,20.53
2024-02-29T01:02:04.695Z,20.87
2024-02-29T01:04:31.209Z,19.90
2024-02-29T01:06:58.384Z,19.13
2024-02-29T01:09:28.902Z,17.87
2024-02-29T01:11:55.833Z,20.03
2024-02-29T01:14:22.458Z,19.07
2024-02-29T01:16:49.780Z,21.60
2024-02-29T01:19:16.426Z,18.90
2024-02-29T01:21:43.111Z,19.93
2024-02-29T01:24:09.638Z,22.23
2024-02-29T01:26:36.152Z,20.87
2024-02-29T01:29:02.659Z,19.73
2024-02-29T01:31:29.800Z,22.57
2024-02-29T01:33:56.731Z,20.67
2024-02-29T01:36:23.255Z,21.53
2024-02-29T01:38:49.842Z,22.63
2024-02-29T01:41:16.643Z,22.70
2024-02-29T01:43:53.943Z,25.57
2024-02-29T01:46:21.458Z,24.87
2024-02-29T01:48:51.673Z,24.17
2024-02-29T01:51:19.988Z,24.10
2024-02-29T01:53:46.724Z,26.23
2024-02-29T01:56:16.564Z,26.43
2024-02-29T01:58:43.429Z,24.30
2024-02-29T02:01:10.365Z,27.80
2024-02-29T02:03:38.340Z,22.63
2024-02-29T02:06:05.358Z,21.87
2024-02-29T02:08:37.323Z,21.73
2024-02-29T02:11:04.036Z,23.53
2024-02-29T02:13:30.832Z,24.63
2024-02-29T02:15:57.267Z,22.07
2024-02-29T02:18:23.803Z,24.40
2024-02-29T02:20:50.992Z,28.30
2024-02-29T02:23:17.872Z,25.93
2024-02-29T02:25:44.526Z,23.83
2024-02-29T02:28:13.355Z,25.30
2024-02-29T02:30:40.498Z,23.80
2024-02-29T02:33:07.158Z,24.13
2024-02-29T02:35:35.114Z,23.03
2024-02-29T02:38:05.842Z,22.97
2024-02-29T02:40:32.745Z,22.53
2024-02-29T02:42:59.495Z,23.13
2024-02-29T02:45:26.174Z,23.30
2024-02-29T02:47:53.055Z,23.17
2024-02-29T02:50:19.910Z,22.17
2024-02-29T02:52:46.443Z,23.53
2024-02-29T02:55:13.383Z,23.53
2024-02-29T02:57:39.965Z,22.90
2024-02-29T03:00:08.016Z,22.20
2024-02-29T03:02:34.478Z,22.77
2024-02-29T03:05:01.069Z,23.73
2024-02-29T03:07:27.589Z,26.03
2024-02-29T03:09:54.345Z,24.93
2024-02-29T03:12:20.912Z,27.90
2024-02-29T03:14:47.611Z,26.57
2024-02-29T03:17:14.274Z,25.63
2024-02-29T03:19:40.959Z,24.47
2024-02-29T03:22:07.580Z,24.67
2024-02-29T03:24:34.283Z,27.13
2024-02-29T03:27:00.760Z,25.17
2024-02-29T03:29:27.448Z,24.63
2024-02-29T03:31:54.196Z,24.00
2024-02-29T03:34:21.034Z,25.83
2024-02-29T03:36:47.672Z,24.20
2024-02-29T03:39:14.182Z,25.70
2024-02-29T03:41:40.712Z,25.23
2024-02-29T03:44:07.356Z,23.57
2024-02-29T03:46:33.876Z,25.03
2024-02-29T03:49:00.647Z,24.37
2024-02-29T03:51:27.150Z,22.77
2024-02-29T03:53:53.831Z,26.77
2024-02-29T03:56:21.523Z,23.77
2024-02-29T03:58:47.944Z,25.67
2024-02-29T04:01:14.943Z,26.40
2024-02-29T04:03:42.289Z,28.00
2024-02-29T04:06:08.945Z,28.50
2024-02-29T04:08:37.460Z,23.80
2024-02-29T04:11:04.617Z,27.27
2024-02-29T04:13:31.688Z,22.67
2024-02-29T04:15:58.497Z,20.73
2024-02-29T04:18:25.159Z,27.87
2024-02-29T04:21:12.168Z,26.50
2024-02-29T04:23:38.812Z,24.80
2024-02-29T04:26:37.837Z,28.47
2024-02-29T04:29:04.359Z,28.87
2024-02-29T04:31:30.905Z,29.30
2024-02-29T04:33:57.453Z,29.60
2024-02-29T04:36:23.965Z,29.10
2024-02-29T04:38:51.193Z,30.63
2024-02-29T04:41:18.030Z,33.57
2024-02-29T04:43:44.478Z,29.40
2024-02-29T04:46:11.040Z,29.50
2024-02-29T04:48:37.716Z,29.80
2024-02-29T04:51:06.179Z,29.77
2024-02-29T04:53:32.820Z,31.83
2024-02-29T04:55:59.354Z,24.43
2024-02-29T04:58:25.781Z,25.63
2024-02-29T05:00:53.282Z,24.87
2024-02-29T05:03:20.153Z,29.67
2024-02-29T05:05:46.848Z,29.00
2024-02-29T05:08:14.076Z,23.73
2024-02-29T05:10:40.925Z,24.37
2024-02-29T05:13:07.697Z,31.97
2024-02-29T05:15:34.589Z,23.87
2024-02-29T05:18:01.666Z,22.70
2024-02-29T05:20:29.856Z,25.33
2024-02-29T05:22:56.372Z,28.50
2024-02-29T05:25:23.019Z,34.03
2024-02-29T05:27:49.567Z,34.03
2024-02-29T05:30:16.385Z,36.50
2024-02-29T05:32:43.257Z,35.80
2024-02-29T05:35:09.964Z,35.80
2024-02-29T05:37:37.426Z,37.30
2024-02-29T05:40:06.998Z,37.83
2024-02-29T05:42:34.115Z,34.10
2024-02-29T05:45:01.101Z,34.20
2024-02-29T05:47:27.874Z,35.97
2024-02-29T05:49:54.610Z,32.77
2024-02-29T05:52:21.098Z,37.17
2024-02-29T05:54:47.757Z,38.83
2024-02-29T05:57:14.259Z,36.80
2024-02-29T05:59:40.696Z,38.10
2024-02-29T06:02:10.813Z,41.03
2024-02-29T06:04:37.746Z,38.53
2024-02-29T06:07:05.442Z,39.30
2024-02-29T06:09:31.910Z,39.20
2024-02-29T06:11:58.372Z,43.40
2024-02-29T06:14:25.807Z,40.97
2024-02-29T06:16:52.424Z,41.10
2024-02-29T06:19:19.014Z,33.87
2024-02-29T06:21:45.723Z,33.67
2024-02-29T06:24:12.424Z,29.27
2024-02-29T06:26:39.253Z,24.70
2024-02-29T06:29:05.995Z,29.83
2024-02-29T06:31:32.554Z,26.47
2024-02-29T06:34:01.532Z,30.47
2024-02-29T06:36:28.296Z,30.27
2024-02-29T06:38:55.068Z,27.87
2024-02-29T06:41:21.662Z,29.80
2024-02-29T06:43:48.335Z,31.13
2024-02-29T06:46:14.891Z,29.30
2024-02-29T06:48:41.586Z,33.63
2024-02-29T06:51:08.053Z,30.13
2024-02-29T06:53:34.602Z,26.50
2024-02-29T06:56:01.227Z,29.23
2024-02-29T06:58:27.997Z,33.87
2024-02-29T07:00:54.948Z,28.00
2024-02-29T07:03:23.597Z,27.37
2024-02-29T07:05:51.092Z,22.70
2024-02-29T07:08:17.575Z,28.23
2024-02-29T07:10:44.143Z,25.23
2024-02-29T07:13:11.295Z,24.37
2024-02-29T07:15:38.202Z,30.60
2024-02-29T07:18:04.993Z,29.13
2024-02-29T07:20:31.707Z,29.20
2024-02-29T07:23:00.380Z,32.97
2024-02-29T07:25:28.822Z,31.87
2024-02-29T07:27:56.323Z,30.37
2024-02-29T07:30:23.000Z,33.00
2024-02-29T07:32:49.760Z,30.43
2024-02-29T07:35:18.796Z,31.10
2024-02-29T07:37:45.860Z,31.60
2024-02-29T07:40:12.708Z,29.10
2024-02-29T07:42:42.944Z,32.03
2024-02-29T07:45:10.170Z,26.30
2024-02-29T07:47:37.334Z,31.93
2024-02-29T07:50:07.227Z,30.17
2024-02-29T07:52:33.952Z,30.63
2024-02-29T07:55:00.882Z,29.90
2024-02-29T07:57:27.557Z,32.47
2024-02-29T07:59:53.996Z,31.47
2024-02-29T08:02:23.102Z,28.60
2024-02-29T08:04:51.308Z,32.13
2024-02-29T08:07:17.914Z,29.30
2024-02-29T08:09:44.466Z,29.90
2024-02-29T08:12:10.947Z,26.37
2024-02-29T08:14:37.432Z,25.93
2024-02-29T08:17:04.017Z,24.50
2024-02-29T08:19:30.507Z,26.57
2024-02-29T08:21:57.784Z,25.20
2024-02-29T08:24:24.211Z,23.37
2024-02-29T08:26:51.057Z,23.87
2024-02-29T08:29:17.926Z,26.23
2024-02-29T08:31:45.322Z,23.40
2024-02-29T08:34:12.001Z,27.37
2024-02-29T08:36:38.720Z,28.77
2024-02-29T08:39:05.335Z,26.07
2024-02-29T08:41:31.805Z,27.00
2024-02-29T08:43:58.298Z,25.00
2024-02-29T08:46:24.849Z,21.37
2024-02-29T08:48:51.458Z,21.70
2024-02-29T08:51:17.956Z,19.83
2024-02-29T08:53:44.411Z,23.77
2024-02-29T08:56:10.930Z,21.43
2024-02-29T08:58:37.684Z,21.60
2024-02-29T09:01:05.253Z,20.07
2024-02-29T09:03:31.868Z,21.90
2024-02-29T09:05:58.294Z,25.37
2024-02-29T09:08:25.014Z,21.50
2024-02-29T09:10:51.825Z,22.97
2024-02-29T09:13:29.812Z,22.90
2024-02-29T09:16:01.711Z,21.87
2024-02-29T09:18:30.172Z,23.73
2024-02-29T09:20:56.602Z,21.60
2024-02-29T09:23:23.041Z,23.33
2024-02-29T09:25:50.949Z,22.27
2024-02-29T09:28:17.399Z,22.97
2024-02-29T09:30:44.334Z,24.03
2024-02-29T09:33:10.961Z,23.83
2024-02-29T09:35:37.649Z,23.30
2024-02-29T09:38:05.809Z,24.08
2024-02-29T09:40:41.891Z,24.33
2024-02-29T09:43:15.722Z,23.53
2024-02-29T09:45:43.642Z,23.93
2024-02-29T09:48:12.189Z,24.90
2024-02-29T09:50:39.016Z,25.80
2024-02-29T09:53:06.780Z,25.33
2024-02-29T09:55:35.217Z,25.43
2024-02-29T09:58:03.699Z,25.58
2024-02-29T10:00:31.722Z,25.87
2024-02-29T10:02:58.805Z,26.27
2024-02-29T10:05:26.047Z,25.02
2024-02-29T10:07:53.549Z,25.38
2024-02-29T10:10:20.076Z,24.10
2024-02-29T10:12:54.751Z,25.20
2024-02-29T10:15:26.258Z,24.80
2024-02-29T10:17:54.404Z,25.55
2024-02-29T10:20:24.067Z,24.70
2024-02-29T10:22:50.936Z,24.13
2024-02-29T10:25:17.729Z,24.00
2024-02-29T10:27:44.663Z,23.60
2024-02-29T10:30:16.657Z,24.05
2024-02-29T10:32:45.501Z,24.10
2024-02-29T10:35:39.842Z,24.00
2024-02-29T10:38:09.929Z,23.23
2024-02-29T10:40:36.571Z,23.20
2024-02-29T10:43:04.047Z,22.80
2024-02-29T10:45:35.635Z,22.85
2024-02-29T10:48:16.014Z,21.20
2024-02-29T10:50:54.394Z,21.70
2024-02-29T10:53:42.182Z,21.40
2024-02-29T10:56:20.792Z,21.95
2024-02-29T10:58:50.732Z,21.58
2024-02-29T11:01:18.056Z,22.10
2024-02-29T11:03:45.513Z,20.90
2024-02-29T11:06:13.970Z,21.38
2024-02-29T11:08:41.639Z,21.13
2024-02-29T11:11:14.121Z,22.42
2024-02-29T11:13:41.053Z,22.40
2024-02-29T11:16:12.281Z,24.35
2024-02-29T11:18:39.302Z,23.35
2024-02-29T11:21:06.685Z,24.25
2024-02-29T11:23:40.628Z,24.23
2024-02-29T11:26:14.500Z,23.65
2024-02-29T11:28:42.402Z,22.83
2024-02-29T11:31:12.785Z,22.50
2024-02-29T11:33:39.529Z,21.98
2024-02-29T11:36:06.406Z,22.55
2024-02-29T11:38:40.150Z,22.38
2024-02-29T11:41:20.469Z,22.85
2024-02-29T11:43:47.946Z,21.80
2024-02-29T11:46:15.227Z,20.40
2024-02-29T11:48:42.273Z,20.27
2024-02-29T11:51:10.474Z,20.52
2024-02-29T11:53:39.768Z,24.33
2024-02-29T11:56:14.613Z,19.75
2024-02-29T11:58:43.639Z,18.45
2024-02-29T12:01:13.716Z,19.20
2024-02-29T12:03:40.394Z,17.95
2024-02-29T12:06:07.306Z,17.63
2024-02-29T12:08:33.852Z,16.98
2024-02-29T12:11:01.452Z,16.60
2024-02-29T12:13:29.167Z,16.20
2024-02-29T12:15:56.615Z,16.75
2024-02-29T12:18:24.043Z,16.15
2024-02-29T12:20:51.360Z,17.30
2024-02-29T12:23:20.176Z,16.48
2024-02-29T12:25:47.387Z,15.52
2024-02-29T12:28:14.756Z,15.52
2024-02-29T12:30:41.817Z,16.10
2024-02-29T12:33:09.315Z,16.23
2024-02-29T12:35:35.855Z,15.73
2024-02-29T12:38:05.449Z,14.35
2024-02-29T12:40:34.169Z,14.40
2024-02-29T12:43:01.283Z,13.63
2024-02-29T12:45:28.198Z,14.85
2024-02-29T12:47:55.717Z,14.15
2024-02-29T12:50:23.005Z,15.10
2024-02-29T12:52:55.082Z,14.20
2024-02-29T12:55:24.709Z,14.43
2024-02-29T12:57:51.489Z,13.82
2024-02-29T13:00:28.345Z,14.23
2024-02-29T13:02:55.063Z,14.30
2024-02-29T13:05:22.572Z,13.88
2024-02-29T13:07:49.797Z,13.00
2024-02-29T13:10:16.495Z,12.98
2024-02-29T13:12:44.458Z,13.20
2024-02-29T13:15:14.082Z,13.57
2024-02-29T13:17:41.066Z,12.90
2024-02-29T13:20:08.150Z,12.80
2024-02-29T13:22:35.784Z,12.73
2024-02-29T13:25:04.111Z,13.18
2024-02-29T13:27:31.045Z,13.00
2024-02-29T13:29:57.677Z,12.45
2024-02-29T13:32:24.647Z,12.65
2024-02-29T13:34:51.863Z,12.70
2024-02-29T13:37:20.533Z,13.38
2024-02-29T13:39:47.466Z,13.73
2024-02-29T13:42:14.005Z,12.20
2024-02-29T13:44:40.756Z,12.45
2024-02-29T13:47:07.212Z,12.25
2024-02-29T13:49:34.701Z,12.20
2024-02-29T13:52:01.236Z,11.90
2024-02-29T13:54:27.792Z,11.75
2024-02-29T13:56:54.413Z,11.48
2024-02-29T13:59:21.066Z,11.20
2024-02-29T14:01:48.485Z,11.68
2024-02-29T14:04:16.829Z,10.43
2024-02-29T14:06:44.543Z,10.30
2024-02-29T14:09:12.389Z,11.02
2024-02-29T14:11:39.996Z,11.00
2024-02-29T14:14:07.199Z,10.55
2024-02-29T14:16:34.157Z,10.20
2024-02-29T14:19:00.769Z,10.80
2024-02-29T14:21:27.354Z,10.50
2024-02-29T14:23:53.869Z,10.52
2024-02-29T14:26:20.786Z,11.05
2024-02-29T14:28:47.338Z,9.88
2024-02-29T14:31:14.756Z,11.38
2024-02-29T14:33:42.196Z,9.80
2024-02-29T14:36:11.321Z,9.98
2024-02-29T14:38:38.542Z,10.10
2024-02-29T14:41:05.251Z,10.10
2024-02-29T14:43:31.784Z,9.88
2024-02-29T14:45:58.311Z,9.93
2024-02-29T14:48:25.690Z,10.30
2024-02-29T14:50:52.410Z,9.25
2024-02-29T14:53:19.044Z,9.32
2024-02-29T14:55:45.501Z,9.77
2024-02-29T14:58:12.042Z,9.05
2024-02-29T15:00:38.537Z,8.73
2024-02-29T15:03:05.424Z,8.30
2024-02-29T15:05:31.849Z,8.32
2024-02-29T15:07:59.061Z,7.65
2024-02-29T15:10:25.606Z,8.00
2024-02-29T15:12:52.302Z,8.35
2024-02-29T15:15:18.909Z,8.02
2024-02-29T15:17:45.841Z,7.70
2024-02-29T15:20:12.500Z,7.65
2024-02-29T15:22:39.014Z,6.95
2024-02-29T15:25:15.372Z,7.20
2024-02-29T15:27:47.394Z,7.10
2024-02-29T15:30:14.342Z,7.20
2024-02-29T15:32:41.008Z,6.95
2024-02-29T15:35:08.997Z,6.80
2024-02-29T15:37:35.877Z,6.43
2024-02-29T15:40:03.380Z,6.10
2024-02-29T15:42:29.818Z,6.30
2024-02-29T15:44:56.670Z,6.13
2024-02-29T15:47:23.152Z,6.60
2024-02-29T15:49:49.609Z,6.57
2024-02-29T15:52:17.960Z,7.32
2024-02-29T15:54:44.646Z,7.43
2024-02-29T15:57:12.568Z,6.65
2024-02-29T15:59:40.271Z,6.88
2024-02-29T16:02:07.779Z,6.20
2024-02-29T16:04:35.942Z,7.18
2024-02-29T16:07:02.449Z,6.85
2024-02-29T16:09:30.778Z,7.00
2024-02-29T16:11:57.276Z,6.63
2024-02-29T16:14:24.032Z,7.05
2024-02-29T16:16:50.584Z,7.38
2024-02-29T16:19:17.195Z,7.03
2024-02-29T16:21:43.768Z,7.22
2024-02-29T16:24:10.529Z,7.88
2024-02-29T16:26:37.429Z,7.50
2024-02-29T16:29:04.146Z,7.57
2024-02-29T16:31:31.054Z,8.00
2024-02-29T16:33:57.864Z,7.45
2024-02-29T16:36:24.452Z,7.90
2024-02-29T16:38:50.976Z,7.88
2024-02-29T16:41:17.922Z,7.50
2024-02-29T16:43:44.715Z,8.20
2024-02-29T16:46:12.138Z,7.70
2024-02-29T16:48:38.713Z,8.20
2024-02-29T16:51:05.459Z,7.85
2024-02-29T16:53:32.499Z,8.07
2024-02-29T16:55:59.875Z,7.88
2024-02-29T16:58:26.941Z,7.78
2024-02-29T17:00:55.494Z,8.10
2024-02-29T17:03:22.056Z,7.80
2024-02-29T17:05:48.755Z,8.25
2024-02-29T17:08:15.244Z,8.13
2024-02-29T17:10:42.026Z,8.07
2024-02-29T17:13:08.632Z,9.05
2024-02-29T17:15:38.316Z,8.07
2024-02-29T17:18:05.241Z,8.45
2024-02-29T17:20:31.904Z,10.07
2024-02-29T17:22:58.545Z,9.80
2024-02-29T17:25:25.096Z,9.38
2024-02-29T17:27:53.956Z,9.63
2024-02-29T17:30:21.916Z,9.10
2024-02-29T17:32:48.563Z,9.00
2024-02-29T17:35:17.095Z,8.70
2024-02-29T17:37:44.811Z,9.15
2024-02-29T17:40:11.812Z,8.50
2024-02-29T17:42:38.422Z,8.60
2024-02-29T17:45:05.874Z,8.52
2024-02-29T17:47:32.392Z,8.65
2024-02-29T17:49:58.935Z,8.65
2024-02-29T17:52:26.446Z,8.48
2024-02-29T17:54:55.531Z,8.20
2024-02-29T17:57:22.451Z,8.15
2024-02-29T17:59:49.156Z,8.27
2024-02-29T18:02:15.698Z,7.45
2024-02-29T18:04:42.390Z,7.90
2024-02-29T18:07:09.022Z,7.70
2024-02-29T18:09:35.984Z,7.75
2024-02-29T18:12:02.557Z,8.00
2024-02-29T18:14:30.058Z,8.15
2024-02-29T18:16:57.507Z,7.25
2024-02-29T18:19:24.173Z,7.97
2024-02-29T18:21:50.773Z,9.45
2024-02-29T18:24:17.380Z,10.02
2024-02-29T18:26:44.890Z,9.05
2024-02-29T18:29:11.431Z,9.93
2024-02-29T18:31:37.955Z,9.48
2024-02-29T18:34:04.514Z,9.10
2024-02-29T18:36:31.027Z,8.15
2024-02-29T18:38:57.721Z,8.70
2024-02-29T18:41:26.030Z,8.98
2024-02-29T18:43:52.989Z,8.65
2024-02-29T18:46:19.687Z,9.07
2024-02-29T18:48:46.394Z,8.80
2024-02-29T18:51:13.185Z,10.10
2024-02-29T18:53:39.707Z,10.07
2024-02-29T18:56:06.341Z,10.02
2024-02-29T18:58:32.865Z,10.48
2024-02-29T19:00:59.584Z,11.93
2024-02-29T19:03:26.126Z,10.68
2024-02-29T19:05:53.098Z,10.57
2024-02-29T19:08:21.430Z,10.23
2024-02-29T19:10:48.053Z,9.52
2024-02-29T19:13:14.850Z,10.52
2024-02-29T19:15:41.489Z,10.13
2024-02-29T19:18:07.936Z,10.77
2024-02-29T19:20:34.553Z,10.20
2024-02-29T19:23:01.097Z,11.07
2024-02-29T19:25:27.917Z,11.57
2024-02-29T19:27:54.487Z,12.07
2024-02-29T19:30:23.390Z,13.00
2024-02-29T19:32:50.299Z,13.32
2024-02-29T19:35:17.252Z,13.27
2024-02-29T19:37:44.060Z,12.95
2024-02-29T19:40:10.817Z,13.55
2024-02-29T19:42:40.299Z,12.43
2024-02-29T19:45:09.127Z,13.63
2024-02-29T19:47:37.558Z,14.13
2024-02-29T19:50:04.442Z,14.48
2024-02-29T19:52:33.468Z,14.23
2024-02-29T19:55:02.304Z,15.05
2024-02-29T19:57:29.107Z,14.68
2024-02-29T19:59:55.546Z,15.60
2024-02-29T20:02:22.067Z,15.10
2024-02-29T20:04:49.513Z,15.20
2024-02-29T20:07:16.525Z,16.23
2024-02-29T20:09:46.726Z,16.23
2024-02-29T20:12:13.279Z,15.93
2024-02-29T20:14:41.568Z,16.33
2024-02-29T20:17:08.724Z,16.27
2024-02-29T20:19:37.419Z,16.58
2024-02-29T20:22:04.969Z,17.40
2024-02-29T20:24:31.736Z,16.75
2024-02-29T20:26:58.243Z,17.00
2024-02-29T20:29:25.066Z,16.65
2024-02-29T20:31:53.353Z,15.88
2024-02-29T20:34:19.888Z,16.55
2024-02-29T20:36:47.567Z,16.58
2024-02-29T20:39:15.408Z,16.55
2024-02-29T20:41:42.207Z,17.00
2024-02-29T20:44:09.368Z,17.17
2024-02-29T20:46:36.123Z,17.38
2024-02-29T20:49:02.652Z,15.57
2024-02-29T20:51:29.138Z,16.33
2024-02-29T20:53:55.656Z,16.10
2024-02-29T20:56:22.706Z,16.35
2024-02-29T20:58:49.246Z,16.65
2024-02-29T21:01:16.147Z,16.10
2024-02-29T21:03:42.719Z,15.55
2024-02-29T21:06:09.220Z,14.95
2024-02-29T21:08:38.507Z,15.45
2024-02-29T21:11:05.056Z,15.45
2024-02-29T21:13:34.763Z,15.25
2024-02-29T21:16:01.507Z,14.93
2024-02-29T21:18:28.085Z,14.00
2024-02-29T21:20:54.527Z,14.00
2024-02-29T21:23:20.995Z,14.70
2024-02-29T21:25:47.566Z,14.82
2024-02-29T21:28:14.656Z,15.30
2024-02-29T21:30:41.652Z,15.95
2024-02-29T21:33:08.242Z,15.93
2024-02-29T21:35:34.775Z,15.25
2024-02-29T21:38:01.260Z,16.90
2024-02-29T21:40:28.378Z,16.65
2024-02-29T21:42:55.037Z,15.60
2024-02-29T21:45:21.713Z,16.27
2024-02-29T21:47:48.360Z,15.57
2024-02-29T21:50:14.808Z,16.15
2024-02-29T21:52:41.573Z,15.65
2024-02-29T21:55:08.784Z,15.68
2024-02-29T21:57:35.376Z,16.45
2024-02-29T22:00:02.139Z,16.00
2024-02-29T22:02:28.613Z,16.65
2024-02-29T22:04:55.572Z,15.73
2024-02-29T22:07:22.376Z,16.77
2024-02-29T22:09:49.891Z,14.60
2024-02-29T22:12:16.336Z,14.95
2024-02-29T22:14:42.752Z,15.98
2024-02-29T22:17:09.465Z,15.20
2024-02-29T22:19:38.238Z,15.18
2024-02-29T22:22:04.856Z,15.07
2024-02-29T22:24:31.343Z,15.73
2024-02-29T22:26:58.697Z,13.93
2024-02-29T22:29:25.160Z,13.63
2024-02-29T22:31:51.586Z,13.95
2024-02-29T22:34:18.152Z,14.38
2024-02-29T22:36:44.760Z,14.32
2024-02-29T22:39:11.994Z,13.90
2024-02-29T22:41:52.441Z,14.65
2024-02-29T22:44:23.840Z,13.70
2024-02-29T22:46:50.394Z,13.23
2024-02-29T22:49:16.848Z,13.10
2024-02-29T22:51:43.440Z,13.80
2024-02-29T22:54:09.870Z,14.57
2024-02-29T22:56:36.723Z,13.75
2024-02-29T22:59:03.195Z,14.45
2024-02-29T23:01:29.873Z,14.27
2024-02-29T23:03:56.801Z,15.07
2024-02-29T23:06:23.679Z,15.13
2024-02-29T23:08:50.106Z,16.13
2024-02-29T23:11:17.319Z,16.27
2024-02-29T23:13:43.967Z,16.27
2024-02-29T23:16:10.489Z,17.83
2024-02-29T23:18:36.936Z,16.55
2024-02-29T23:21:22.877Z,17.33
2024-02-29T23:23:49.400Z,16.88
2024-02-29T23:26:15.816Z,15.85
2024-02-29T23:28:42.212Z,16.95
2024-02-29T23:31:08.781Z,18.13
2024-02-29T23:33:35.786Z,15.50
2024-02-29T23:36:02.333Z,14.88
2024-02-29T23:38:28.748Z,13.52
2024-02-29T23:40:55.189Z,13.95
2024-02-29T23:43:21.798Z,12.75
2024-02-29T23:45:48.237Z,13.18
2024-02-29T23:48:14.830Z,13.50
2024-02-29T23:50:41.316Z,11.95
2024-02-29T23:53:07.745Z,12.50
2024-02-29T23:55:34.490Z,13.48
2024-02-29T23:58:01.049Z,14.63
